Главная страница
METAR-TAF:

METAR-TAF

Аэропорты :

Нефтяная платформа

F16-a, Нидерланды

широта: 54-07-00N, долгота: 4-00-44E, высота над уровнем моря: 28 м

Текущие метеонаблюдения

Эта сводка был подготовлена 42 минут назад, в 05:25 UTC
Ветер 7 Узел от северо-западный
Температура 13°C
Влажность 58%
Давление 1013 hPa
Видимость 10 км и более

METAR: EHFZ 230525Z AUTO 31007KT 9999 NSC 13/05 Q1013 W///H///

Время: 08:07 (06:07 UTC)


TAF: отсутствует

Метеонаблюдения и прогнозы для более 4000 аэропортов (сводки METAR и TAF).

Имеющиеся станции представлены на карте желтыми и красными точками.

Чтобы увидеть название станции, наведите на нее мышь.

Затем щелкните, чтобы увидеть метеонаблюдения и метеопрогнозы.

Управление картой: чтобы увеличить масштаб, щелкните зеленые кнопки с черным крестиком; чтобы уменьшить масштаб, щелкните зеленую кнопку с тире; для просмотра соседних карт щелкайте зеленые стрелки.


METAR-TAF: